Aeroporto :
LOGIN :

Iscrizione | Disclaimer

   EN    FR    IT 

 










Sommario :    VFR   VFR Marginale   IFR   IFR Intensivo   IFR Molto Intensivo
Visibilità : 
Base nubi : 
>= 8 km
>= 3000ft
5 / 8 km
1000 / 3000 ft
1500m / 5 km
500 / 1000 ft
800 / 1500m
200 / 500 ft
< 800m
< 200 ft
Simboli :   Temporali  Nebbia  Neve Forte  Precipitazioni Forti  Vento > 20 kt
SIGMETs :   Varie  Temporali  Ghiacco  Turbolenza  Onda orograficha  Ceneri Vulcaniche







- Altitudine del aeroporto : 935 ft


EBFS - Florennes

ULTIMO METAR :
  • 171155Z 09003KT 9999 FEW048 23/12 Q1020 BLU BLU

METARs OBSOLETI :
  • 171125Z 15004KT 9999 FEW044 22/11 Q1020 BLU BLU
  • 171055Z 18004G15KT 9999 FEW044 21/11 Q1020 BLU BLU
  • 171025Z 14003KT 9999 FEW042 21/11 Q1020 BLU BLU
  • 170955Z 21004KT 9999 FEW036 20/13 Q1021 BLU BLU
  • 170925Z 19004KT 9999 FEW032 20/13 Q1021 BLU BLU

TAF TAF EBFS
Valido dal 17 a 13 ore il 17 a 22 ore UTC


171141Z 1713/1722 17004KT 9999 FEW045
BECMG 1714/1716 VRB03KT FEW050 SCT250
Nessun NOTAM noto per questo aeroporto.



MetMap, La meteo Aeronautica in un colpo d'occhio ! - Copyright ORBIFLY Dicembre 2007 - Disclaimer

ORBIFLY MET'MAP TEAM :

Programmazione e sviluppo : Alexandra Zaïnal
Concezione e sviluppo : Baudouin d'Aumeries
Co-Programmazione e sviluppo : Marc-Olivier Méhu
Supporto tecnico e logistico : Manuel Goepfert
Aiuto per la traduzione : Arnaldo La Scala

Contatto : metmap@orbifly.com




FONTI E CREDITI :

   NOAA